Time;durP1;ratioP1;P1;durP2;ratioP2;P2;SDS_P1;SDS_P2;PMS_P1;PMS_P2;Temp;Humidity;BMP_temperature;BMP_pressure;BME280_temperature;BME280_humidity;BME280_pressure;Samples;Min_cycle;Max_cycle;Signal;HPM_P1;HPM_P2
2020/12/28 00:00:12;;;;;;;1.67;1.30;;;5.30;98.20;;;;;;5003467;28;20465;-79
2020/12/28 00:02:39;;;;;;;1.67;1.37;;;5.30;98.20;;;;;;5005153;28;20521;-79
2020/12/28 00:05:06;;;;;;;1.60;1.30;;;5.30;98.20;;;;;;5002588;28;20555;-78
2020/12/28 00:07:33;;;;;;;1.60;1.30;;;5.30;98.20;;;;;;5004093;28;20465;-79
2020/12/28 00:10:00;;;;;;;1.60;1.30;;;5.30;98.20;;;;;;5009361;28;20456;-79
2020/12/28 00:12:29;;;;;;;1.60;1.40;;;5.30;98.20;;;;;;5008166;28;20983;-79
2020/12/28 00:14:56;;;;;;;1.60;1.33;;;5.20;98.20;;;;;;5034428;23;20496;-79
2020/12/28 00:17:22;;;;;;;1.63;1.30;;;5.20;98.20;;;;;;5029913;28;20486;-78
2020/12/28 00:19:48;;;;;;;1.70;1.43;;;5.20;98.20;;;;;;5028267;28;20559;-78
2020/12/28 00:22:16;;;;;;;1.70;1.40;;;5.20;98.20;;;;;;5027798;28;20553;-78
2020/12/28 00:24:42;;;;;;;1.60;1.33;;;5.20;98.20;;;;;;5029136;28;21049;-79
2020/12/28 00:27:09;;;;;;;1.60;1.20;;;5.20;98.20;;;;;;5027060;28;20550;-79
2020/12/28 00:29:36;;;;;;;1.60;1.40;;;5.20;98.20;;;;;;5024649;28;20873;-80
2020/12/28 00:32:02;;;;;;;1.67;1.40;;;5.20;98.20;;;;;;5028522;28;20503;-79
2020/12/28 00:34:29;;;;;;;1.70;1.50;;;5.20;98.20;;;;;;5025515;28;20475;-79
2020/12/28 00:36:55;;;;;;;1.60;1.30;;;5.10;98.20;;;;;;5025862;28;20500;-80
2020/12/28 00:39:22;;;;;;;1.60;1.30;;;5.10;98.20;;;;;;5028166;28;20585;-79
2020/12/28 00:41:48;;;;;;;1.70;1.40;;;5.10;98.20;;;;;;5028666;28;20468;-81
2020/12/28 00:44:14;;;;;;;1.60;1.20;;;5.10;98.20;;;;;;5023883;28;20499;-81
2020/12/28 00:46:42;;;;;;;1.67;1.40;;;5.10;98.20;;;;;;5025875;28;20800;-81
2020/12/28 00:49:08;;;;;;;1.70;1.40;;;5.10;98.20;;;;;;5032719;28;20539;-81
2020/12/28 00:51:34;;;;;;;1.60;1.40;;;5.00;98.20;;;;;;5026685;28;21325;-81
2020/12/28 00:54:01;;;;;;;1.67;1.37;;;5.00;98.20;;;;;;5030206;28;20464;-81
2020/12/28 00:56:27;;;;;;;1.60;1.40;;;5.00;98.20;;;;;;5028529;28;21009;-81
2020/12/28 00:58:54;;;;;;;1.63;1.30;;;4.90;98.20;;;;;;5025058;28;20515;-79
2020/12/28 01:01:20;;;;;;;1.63;1.40;;;4.90;98.20;;;;;;5024992;28;20992;-80
2020/12/28 01:03:47;;;;;;;1.67;1.30;;;4.80;98.20;;;;;;5026499;28;21107;-80
2020/12/28 01:06:14;;;;;;;1.60;1.30;;;4.80;98.20;;;;;;5021561;28;20792;-79
2020/12/28 01:08:40;;;;;;;1.60;1.30;;;4.80;98.20;;;;;;5023451;28;20472;-79
2020/12/28 01:11:07;;;;;;;1.60;1.30;;;4.80;98.20;;;;;;5027590;28;20587;-79
2020/12/28 01:13:33;;;;;;;1.60;1.30;;;4.80;98.20;;;;;;5022984;28;20503;-79
2020/12/28 01:16:00;;;;;;;1.60;1.30;;;4.80;98.20;;;;;;5026770;28;20488;-79
2020/12/28 01:18:26;;;;;;;1.70;1.47;;;4.80;98.20;;;;;;5025380;28;20795;-80
2020/12/28 01:20:53;;;;;;;1.60;1.30;;;4.80;98.20;;;;;;5030643;28;20499;-79
2020/12/28 01:23:20;;;;;;;1.60;1.40;;;4.80;98.20;;;;;;5028570;28;20590;-80
2020/12/28 01:25:46;;;;;;;1.67;1.40;;;4.80;98.20;;;;;;5029536;28;20570;-79
2020/12/28 01:28:12;;;;;;;1.60;1.30;;;4.80;98.20;;;;;;5021236;28;20472;-79
2020/12/28 01:30:39;;;;;;;1.70;1.40;;;4.80;98.20;;;;;;5025454;28;20491;-78
2020/12/28 01:33:05;;;;;;;1.60;1.30;;;4.80;98.20;;;;;;5027171;28;20543;-79
2020/12/28 01:35:32;;;;;;;1.70;1.47;;;4.80;98.20;;;;;;5025900;28;20538;-80
2020/12/28 01:37:59;;;;;;;1.60;1.30;;;4.80;98.20;;;;;;5022853;28;20467;-81
2020/12/28 01:40:30;;;;;;;1.60;1.30;;;4.80;98.20;;;;;;5026376;28;20554;-79
2020/12/28 01:42:57;;;;;;;1.60;1.40;;;4.90;98.20;;;;;;5022813;28;20571;-81
2020/12/28 01:45:23;;;;;;;1.60;1.20;;;4.80;98.20;;;;;;5028328;28;20526;-80
2020/12/28 01:47:49;;;;;;;1.60;1.30;;;4.80;98.20;;;;;;5021975;28;20964;-79
2020/12/28 01:50:16;;;;;;;1.70;1.40;;;4.80;98.20;;;;;;5032250;28;20490;-80
2020/12/28 01:52:43;;;;;;;1.63;1.30;;;4.80;98.20;;;;;;5031029;28;20486;-79
2020/12/28 01:55:11;;;;;;;1.63;1.33;;;4.80;98.20;;;;;;5031610;28;20987;-79
2020/12/28 01:57:37;;;;;;;1.60;1.30;;;4.80;98.20;;;;;;5029103;28;20455;-80
2020/12/28 02:00:04;;;;;;;1.60;1.30;;;4.80;98.20;;;;;;5028832;28;20966;-80
2020/12/28 02:02:32;;;;;;;1.60;1.30;;;4.80;98.20;;;;;;5020062;28;20519;-78
2020/12/28 02:04:59;;;;;;;1.60;1.30;;;4.80;98.20;;;;;;5025630;28;20492;-79
2020/12/28 02:07:31;;;;;;;1.60;1.40;;;4.80;98.20;;;;;;5025988;28;20590;-80
2020/12/28 02:09:57;;;;;;;1.60;1.30;;;4.80;98.20;;;;;;5026847;28;20523;-82
2020/12/28 02:12:24;;;;;;;1.67;1.30;;;4.80;98.20;;;;;;5027574;28;20750;-80
2020/12/28 02:14:51;;;;;;;1.60;1.30;;;4.80;98.20;;;;;;5026240;28;20861;-80
2020/12/28 02:17:17;;;;;;;1.67;1.30;;;4.80;98.20;;;;;;5028427;28;20467;-79
2020/12/28 02:19:43;;;;;;;1.63;1.40;;;4.80;98.20;;;;;;5030079;28;20489;-79
2020/12/28 02:22:11;;;;;;;1.60;1.30;;;4.80;98.20;;;;;;5027055;28;20495;-78
2020/12/28 02:24:37;;;;;;;1.63;1.40;;;4.80;98.20;;;;;;5027202;28;21032;-80
2020/12/28 02:27:03;;;;;;;1.60;1.30;;;4.80;98.20;;;;;;5027743;28;20495;-79
2020/12/28 02:29:30;;;;;;;1.70;1.43;;;4.80;98.20;;;;;;5023475;28;20490;-78
2020/12/28 02:31:59;;;;;;;1.60;1.40;;;4.80;98.20;;;;;;5027306;28;20459;-78
2020/12/28 02:34:25;;;;;;;1.63;1.40;;;4.80;98.20;;;;;;5026275;28;20804;-78
2020/12/28 02:36:52;;;;;;;1.60;1.30;;;4.80;98.20;;;;;;5025904;28;20929;-78
2020/12/28 02:39:19;;;;;;;1.60;1.30;;;4.80;98.20;;;;;;5027457;28;20587;-78
2020/12/28 02:41:45;;;;;;;1.70;1.40;;;4.80;98.20;;;;;;5026553;28;20491;-78
2020/12/28 02:44:12;;;;;;;1.60;1.30;;;4.80;98.20;;;;;;5027015;28;20534;-78
2020/12/28 02:46:38;;;;;;;1.67;1.50;;;4.80;98.20;;;;;;5021652;28;20534;-78
2020/12/28 02:49:05;;;;;;;1.60;1.40;;;4.80;98.20;;;;;;5032216;28;20468;-78
2020/12/28 02:51:31;;;;;;;1.60;1.30;;;4.80;98.20;;;;;;5024284;28;20598;-78
2020/12/28 02:53:58;;;;;;;1.60;1.30;;;4.80;98.20;;;;;;5025554;28;20487;-78
2020/12/28 02:56:25;;;;;;;1.63;1.40;;;4.80;98.20;;;;;;5026417;28;20733;-78
2020/12/28 02:58:51;;;;;;;1.60;1.30;;;4.80;98.20;;;;;;5019098;28;20500;-78
2020/12/28 03:01:18;;;;;;;1.60;1.40;;;4.80;98.20;;;;;;5022812;28;20594;-78
2020/12/28 03:03:44;;;;;;;1.60;1.30;;;4.80;98.20;;;;;;5023551;28;20559;-78
2020/12/28 03:06:11;;;;;;;1.60;1.30;;;4.80;98.20;;;;;;5021033;28;20984;-78
2020/12/28 03:08:38;;;;;;;1.60;1.40;;;4.80;98.20;;;;;;5033766;28;20754;-78
2020/12/28 03:11:04;;;;;;;1.60;1.27;;;4.80;98.20;;;;;;5028254;28;20501;-78
2020/12/28 03:13:31;;;;;;;1.60;1.30;;;4.80;98.20;;;;;;5029128;28;20480;-78
2020/12/28 03:15:58;;;;;;;1.67;1.37;;;4.80;98.20;;;;;;5031414;28;20507;-78
2020/12/28 03:18:24;;;;;;;1.60;1.30;;;4.80;98.20;;;;;;5033794;28;20494;-79
2020/12/28 03:20:50;;;;;;;1.60;1.30;;;4.80;98.20;;;;;;5036854;28;20455;-79
2020/12/28 03:23:17;;;;;;;1.70;1.50;;;4.80;98.20;;;;;;5035817;28;20493;-78
2020/12/28 03:25:43;;;;;;;1.70;1.40;;;4.80;98.20;;;;;;5037095;28;20507;-78
2020/12/28 03:28:10;;;;;;;1.60;1.40;;;4.80;98.20;;;;;;5032745;28;20997;-78
2020/12/28 03:30:37;;;;;;;1.67;1.30;;;4.80;98.20;;;;;;5030154;28;20610;-78
2020/12/28 03:33:03;;;;;;;1.60;1.30;;;4.80;98.20;;;;;;5031052;28;20487;-80
2020/12/28 03:35:30;;;;;;;1.67;1.40;;;4.80;98.20;;;;;;5026938;28;20511;-78
2020/12/28 03:37:56;;;;;;;1.60;1.20;;;4.80;98.20;;;;;;5033349;28;20490;-77
2020/12/28 03:40:22;;;;;;;1.63;1.40;;;4.80;98.20;;;;;;5032660;28;20463;-79
2020/12/28 03:42:49;;;;;;;1.60;1.30;;;4.70;98.20;;;;;;5028958;28;20515;-79
2020/12/28 03:45:16;;;;;;;1.67;1.40;;;4.70;98.20;;;;;;5032730;28;20837;-79
2020/12/28 03:47:43;;;;;;;1.60;1.40;;;4.80;98.20;;;;;;5033094;28;20471;-79
2020/12/28 03:50:10;;;;;;;1.60;1.30;;;4.80;98.20;;;;;;5035373;28;20471;-79
2020/12/28 03:52:39;;;;;;;1.60;1.30;;;4.80;98.20;;;;;;5032272;28;20468;-80
2020/12/28 03:55:06;;;;;;;1.63;1.40;;;4.80;98.20;;;;;;5036193;28;20557;-79
2020/12/28 03:57:32;;;;;;;1.60;1.30;;;4.80;98.20;;;;;;5024502;28;20479;-79
2020/12/28 03:59:59;;;;;;;1.60;1.30;;;4.80;98.20;;;;;;5028819;28;20487;-79
2020/12/28 04:02:25;;;;;;;1.70;1.47;;;4.80;98.20;;;;;;5030111;28;20487;-76
2020/12/28 04:04:52;;;;;;;1.63;1.40;;;4.80;98.20;;;;;;5034588;28;20518;-79
2020/12/28 04:07:19;;;;;;;1.63;1.37;;;4.80;98.20;;;;;;5030951;28;20460;-79
2020/12/28 04:09:45;;;;;;;1.60;1.40;;;4.80;98.20;;;;;;5036459;28;20467;-78
2020/12/28 04:12:12;;;;;;;1.70;1.40;;;4.80;98.20;;;;;;5038620;28;20491;-80
2020/12/28 04:14:39;;;;;;;1.70;1.47;;;4.80;98.20;;;;;;5033819;28;20549;-77
2020/12/28 04:17:05;;;;;;;1.60;1.30;;;4.70;98.20;;;;;;5031276;28;20495;-77
2020/12/28 04:19:32;;;;;;;1.60;1.40;;;4.70;98.20;;;;;;5041586;28;20472;-77
2020/12/28 04:21:59;;;;;;;1.63;1.40;;;4.70;98.20;;;;;;5036783;28;20701;-77
2020/12/28 04:24:26;;;;;;;1.63;1.33;;;4.70;98.20;;;;;;5050118;28;20485;-78
2020/12/28 04:26:52;;;;;;;1.60;1.30;;;4.70;98.20;;;;;;5040236;28;20456;-77
2020/12/28 04:29:18;;;;;;;1.70;1.40;;;4.70;98.20;;;;;;5037604;28;20575;-78
2020/12/28 04:31:45;;;;;;;1.60;1.30;;;4.70;98.20;;;;;;5037775;28;20820;-78
2020/12/28 04:34:11;;;;;;;1.60;1.40;;;4.70;98.20;;;;;;5037443;28;20939;-80
2020/12/28 04:36:38;;;;;;;1.60;1.40;;;4.70;98.20;;;;;;5035015;28;20853;-78
2020/12/28 04:39:06;;;;;;;1.60;1.30;;;4.70;98.20;;;;;;5037773;28;20946;-78
2020/12/28 04:41:33;;;;;;;1.60;1.40;;;4.70;98.20;;;;;;5035818;28;20789;-78
2020/12/28 04:44:00;;;;;;;1.60;1.30;;;4.70;98.20;;;;;;5035290;28;20519;-79
2020/12/28 04:46:28;;;;;;;1.70;1.40;;;4.70;98.20;;;;;;5036115;28;21420;-80
2020/12/28 04:48:55;;;;;;;1.60;1.30;;;4.70;98.20;;;;;;5043567;28;20491;-79
2020/12/28 04:51:22;;;;;;;1.60;1.30;;;4.60;98.20;;;;;;5036387;28;20472;-78
2020/12/28 04:53:52;;;;;;;1.60;1.30;;;4.60;98.20;;;;;;5032673;28;20492;-79
2020/12/28 04:56:20;;;;;;;1.67;1.30;;;4.60;98.20;;;;;;5037595;28;20515;-77
2020/12/28 04:58:46;;;;;;;1.60;1.30;;;4.60;98.20;;;;;;5030878;28;20533;-79
2020/12/28 05:01:13;;;;;;;1.70;1.50;;;4.60;98.20;;;;;;5037394;28;20495;-79
2020/12/28 05:03:39;;;;;;;1.60;1.40;;;4.60;98.20;;;;;;5028393;28;20519;-79
2020/12/28 05:06:07;;;;;;;1.60;1.30;;;4.60;98.20;;;;;;5027782;28;21002;-79
2020/12/28 05:08:33;;;;;;;1.60;1.37;;;4.60;98.20;;;;;;5037035;28;20499;-78
2020/12/28 05:11:07;;;;;;;1.63;1.40;;;4.60;98.20;;;;;;5040940;28;20487;-78
2020/12/28 05:13:35;;;;;;;1.60;1.40;;;4.60;98.20;;;;;;5037096;28;20464;-77
2020/12/28 05:16:02;;;;;;;1.70;1.43;;;4.60;98.20;;;;;;5032206;28;20957;-78
2020/12/28 05:18:28;;;;;;;1.60;1.33;;;4.60;98.20;;;;;;5040654;28;20539;-78
2020/12/28 05:20:55;;;;;;;1.63;1.40;;;4.60;98.20;;;;;;5044157;28;20694;-78
2020/12/28 05:23:21;;;;;;;1.60;1.40;;;4.60;98.20;;;;;;5037188;28;20928;-78
2020/12/28 05:25:49;;;;;;;1.67;1.40;;;4.60;98.20;;;;;;5048537;28;20490;-80
2020/12/28 05:28:17;;;;;;;1.63;1.40;;;4.60;98.20;;;;;;5048007;28;20458;-78
2020/12/28 05:30:45;;;;;;;1.67;1.50;;;4.60;98.20;;;;;;5036986;28;20478;-77
2020/12/28 05:33:13;;;;;;;1.60;1.37;;;4.60;98.20;;;;;;5032315;28;20460;-79
2020/12/28 05:35:40;;;;;;;1.60;1.40;;;4.60;98.20;;;;;;5033098;28;20969;-79
2020/12/28 05:38:07;;;;;;;1.60;1.40;;;4.60;98.20;;;;;;5033884;28;20498;-79
2020/12/28 05:40:35;;;;;;;1.60;1.40;;;4.60;98.20;;;;;;5027122;28;20541;-77
2020/12/28 05:43:03;;;;;;;1.60;1.40;;;4.60;98.20;;;;;;5028153;28;20480;-79
2020/12/28 05:45:29;;;;;;;1.63;1.40;;;4.60;98.20;;;;;;5032616;28;20496;-78
2020/12/28 05:47:58;;;;;;;1.63;1.40;;;4.60;98.20;;;;;;5036162;28;20816;-78
2020/12/28 05:50:26;;;;;;;1.60;1.30;;;4.60;98.20;;;;;;5036517;28;20464;-78
2020/12/28 05:52:54;;;;;;;1.60;1.30;;;4.60;98.20;;;;;;5041107;28;20629;-80
2020/12/28 05:55:23;;;;;;;1.60;1.30;;;4.50;98.20;;;;;;5037717;28;20492;-79
2020/12/28 05:57:49;;;;;;;1.67;1.40;;;4.50;98.20;;;;;;5030610;28;20475;-78
2020/12/28 06:00:16;;;;;;;1.70;1.50;;;4.40;98.20;;;;;;5030530;28;20491;-78
2020/12/28 06:02:43;;;;;;;1.60;1.30;;;4.40;98.20;;;;;;5033235;28;20488;-79
2020/12/28 06:05:11;;;;;;;1.60;1.40;;;4.40;98.20;;;;;;5033601;28;20494;-79
2020/12/28 06:07:38;;;;;;;1.60;1.40;;;4.30;98.20;;;;;;5024816;28;20498;-78
2020/12/28 06:10:05;;;;;;;1.70;1.40;;;4.30;98.20;;;;;;5033229;28;20456;-77
2020/12/28 06:12:32;;;;;;;1.70;1.50;;;4.30;98.20;;;;;;5031193;28;20503;-78
2020/12/28 06:14:59;;;;;;;1.60;1.30;;;4.30;98.20;;;;;;5032779;28;20554;-78
2020/12/28 06:17:33;;;;;;;1.60;1.40;;;4.20;98.20;;;;;;5039068;23;20498;-77
2020/12/28 06:20:01;;;;;;;1.67;1.40;;;4.20;98.20;;;;;;5011812;28;20467;-76
2020/12/28 06:22:29;;;;;;;1.70;1.57;;;4.10;98.20;;;;;;5019894;28;20463;-80
2020/12/28 06:24:58;;;;;;;1.70;1.53;;;4.10;98.20;;;;;;5020957;28;20576;-78
2020/12/28 06:27:29;;;;;;;1.63;1.30;;;4.10;98.20;;;;;;5008101;28;20535;-78
2020/12/28 06:30:07;;;;;;;1.63;1.40;;;4.00;98.20;;;;;;5002961;28;20470;-78
2020/12/28 06:32:33;;;;;;;1.67;1.40;;;4.00;98.20;;;;;;5002390;28;20492;-77
2020/12/28 06:35:01;;;;;;;1.70;1.50;;;4.00;98.20;;;;;;5015216;28;20457;-76
2020/12/28 06:37:29;;;;;;;1.60;1.40;;;4.00;98.20;;;;;;5013017;28;20493;-77
2020/12/28 06:39:59;;;;;;;1.60;1.40;;;4.00;98.20;;;;;;5007718;28;20496;-78
2020/12/28 06:42:25;;;;;;;1.67;1.40;;;4.00;98.20;;;;;;5003532;28;20481;-77
2020/12/28 06:44:52;;;;;;;1.63;1.40;;;4.00;98.20;;;;;;5005276;28;20572;-77
2020/12/28 06:47:21;;;;;;;1.60;1.40;;;4.00;98.20;;;;;;5008967;28;20515;-78
2020/12/28 06:49:48;;;;;;;1.60;1.30;;;4.00;98.20;;;;;;5006586;28;20551;-77
2020/12/28 06:52:15;;;;;;;1.63;1.37;;;4.00;98.20;;;;;;5001947;28;20460;-78
2020/12/28 06:54:42;;;;;;;1.63;1.40;;;4.00;98.20;;;;;;5005197;28;20959;-77
2020/12/28 06:57:10;;;;;;;1.63;1.37;;;4.00;98.20;;;;;;5004572;28;20484;-77
2020/12/28 06:59:39;;;;;;;1.67;1.40;;;4.00;98.20;;;;;;5010636;28;20468;-78
2020/12/28 07:02:06;;;;;;;1.67;1.40;;;4.00;98.20;;;;;;5014176;28;20925;-77
2020/12/28 07:04:35;;;;;;;1.70;1.50;;;4.00;98.20;;;;;;5003579;28;20492;-78
2020/12/28 07:07:03;;;;;;;1.63;1.40;;;4.00;98.20;;;;;;5004329;28;20975;-77
2020/12/28 07:09:30;;;;;;;1.70;1.50;;;4.10;98.20;;;;;;5010100;28;20936;-77
2020/12/28 07:12:04;;;;;;;1.70;1.50;;;4.10;98.20;;;;;;5014745;28;20501;-77
2020/12/28 07:14:31;;;;;;;1.60;1.40;;;4.10;98.20;;;;;;5003289;28;20460;-77
2020/12/28 07:16:58;;;;;;;1.67;1.40;;;4.10;98.20;;;;;;5007492;28;20571;-78
2020/12/28 07:19:25;;;;;;;1.60;1.40;;;4.10;98.20;;;;;;5016130;28;20467;-78
2020/12/28 07:21:52;;;;;;;1.67;1.40;;;4.10;98.20;;;;;;5005640;28;20491;-78
2020/12/28 07:24:18;;;;;;;1.70;1.50;;;4.10;98.20;;;;;;5012548;28;20856;-78
2020/12/28 07:26:45;;;;;;;1.63;1.43;;;4.10;98.20;;;;;;5012837;28;21193;-78
2020/12/28 07:29:13;;;;;;;1.70;1.40;;;4.10;98.20;;;;;;5009564;28;20884;-78
2020/12/28 07:31:40;;;;;;;1.60;1.30;;;4.10;98.20;;;;;;5005365;28;20473;-78
2020/12/28 07:34:07;;;;;;;1.70;1.40;;;4.10;98.20;;;;;;5009642;28;21000;-78
2020/12/28 07:36:37;;;;;;;1.60;1.40;;;4.10;98.20;;;;;;5010418;28;20865;-79
2020/12/28 07:39:03;;;;;;;1.60;1.40;;;4.20;98.20;;;;;;5010266;28;20982;-78
2020/12/28 07:41:30;;;;;;;1.63;1.40;;;4.30;98.20;;;;;;5008030;28;20480;-78
2020/12/28 07:43:58;;;;;;;1.70;1.50;;;4.30;98.20;;;;;;5015300;28;20507;-78
2020/12/28 07:46:44;;;;;;;1.60;1.40;;;4.30;98.20;;;;;;5013420;28;20527;-78
2020/12/28 07:49:15;;;;;;;1.60;1.40;;;4.40;98.20;;;;;;5024017;28;20460;-78
2020/12/28 07:51:43;;;;;;;1.70;1.50;;;4.30;98.20;;;;;;5013602;28;20471;-78
2020/12/28 07:54:21;;;;;;;1.60;1.40;;;4.40;98.20;;;;;;5018796;28;20488;-78
2020/12/28 07:56:51;;;;;;;1.70;1.40;;;4.30;98.20;;;;;;5012291;28;20885;-78
2020/12/28 07:59:43;;;;;;;1.67;1.40;;;4.30;98.20;;;;;;5013008;28;20506;-78
2020/12/28 08:02:36;;;;;;;1.60;1.40;;;4.30;98.20;;;;;;5011976;28;20464;-78
2020/12/28 08:05:04;;;;;;;1.60;1.40;;;4.30;98.20;;;;;;5004864;28;20521;-78
2020/12/28 08:07:34;;;;;;;1.67;1.40;;;4.30;98.20;;;;;;5009421;28;20848;-78
2020/12/28 08:10:01;;;;;;;1.60;1.40;;;4.30;98.20;;;;;;5012589;28;20959;-78
2020/12/28 08:12:30;;;;;;;1.70;1.40;;;4.20;98.20;;;;;;5013041;28;20970;-78
2020/12/28 08:14:57;;;;;;;1.60;1.30;;;4.20;98.20;;;;;;5016323;28;20451;-78
2020/12/28 08:17:25;;;;;;;1.70;1.50;;;4.20;98.20;;;;;;5012293;28;20962;-78
2020/12/28 08:19:52;;;;;;;1.60;1.40;;;4.10;98.20;;;;;;5013050;28;20492;-78
2020/12/28 08:22:22;;;;;;;1.67;1.40;;;4.10;98.20;;;;;;5013007;28;20483;-78
2020/12/28 08:24:59;;;;;;;1.63;1.40;;;4.00;98.20;;;;;;5005806;28;20488;-79
2020/12/28 08:27:30;;;;;;;1.60;1.40;;;4.00;98.20;;;;;;5008493;28;20566;-78
2020/12/28 08:29:58;;;;;;;1.70;1.40;;;4.00;98.20;;;;;;5011796;28;20579;-78
2020/12/28 08:32:30;;;;;;;1.63;1.40;;;4.00;98.20;;;;;;5008786;28;20558;-78
2020/12/28 08:34:58;;;;;;;4.23;2.70;;;4.00;98.20;;;;;;5014165;28;20487;-78
2020/12/28 08:37:24;;;;;;;1.60;1.40;;;4.00;98.20;;;;;;5014840;28;21003;-78
2020/12/28 08:39:51;;;;;;;1.63;1.40;;;4.10;98.20;;;;;;5012191;28;20555;-78
2020/12/28 08:42:27;;;;;;;1.60;1.30;;;4.20;98.20;;;;;;5005000;28;20472;-77
2020/12/28 08:44:53;;;;;;;1.60;1.40;;;4.30;98.20;;;;;;5008720;28;20582;-78
2020/12/28 08:47:23;;;;;;;2.77;2.57;;;4.30;98.20;;;;;;5011061;28;20528;-77
2020/12/28 08:49:50;;;;;;;1.63;1.47;;;4.40;98.20;;;;;;5010493;28;20478;-78
2020/12/28 08:52:19;;;;;;;1.60;1.30;;;4.40;98.20;;;;;;5010835;28;20576;-77
2020/12/28 08:54:54;;;;;;;1.63;1.30;;;4.50;98.20;;;;;;5015071;28;20551;-77
2020/12/28 08:57:21;;;;;;;1.70;1.40;;;4.50;98.20;;;;;;5005558;28;20557;-78
2020/12/28 08:59:47;;;;;;;1.67;1.40;;;4.40;98.20;;;;;;5010795;28;20883;-77
2020/12/28 09:02:18;;;;;;;1.63;1.40;;;4.40;98.20;;;;;;5007058;28;20511;-77
2020/12/28 09:04:45;;;;;;;1.67;1.43;;;4.40;98.20;;;;;;5007977;28;20639;-78
2020/12/28 09:07:12;;;;;;;1.63;1.40;;;4.40;98.20;;;;;;5010733;28;20491;-78
2020/12/28 09:09:40;;;;;;;1.70;1.40;;;4.50;98.20;;;;;;5011195;28;20831;-78
2020/12/28 09:12:07;;;;;;;1.60;1.23;;;4.60;98.20;;;;;;5013093;28;20464;-78
2020/12/28 09:14:34;;;;;;;1.70;1.40;;;4.60;98.20;;;;;;5013252;28;21124;-78
2020/12/28 09:17:00;;;;;;;1.63;1.40;;;4.60;98.20;;;;;;5003775;28;20911;-77
2020/12/28 09:19:27;;;;;;;1.60;1.30;;;4.60;98.20;;;;;;5014400;28;20469;-79
2020/12/28 09:21:53;;;;;;;1.63;1.40;;;4.60;98.20;;;;;;5012473;28;20824;-79
2020/12/28 09:24:20;;;;;;;1.60;1.30;;;4.50;98.20;;;;;;5018020;28;20847;-79
2020/12/28 09:26:47;;;;;;;1.63;1.40;;;4.50;98.20;;;;;;5009680;28;20520;-78
2020/12/28 09:29:13;;;;;;;1.60;1.30;;;4.50;98.20;;;;;;5009537;28;20560;-78
2020/12/28 09:31:40;;;;;;;1.60;1.33;;;4.50;98.20;;;;;;5013658;28;20551;-78
2020/12/28 09:34:06;;;;;;;1.60;1.30;;;4.50;98.20;;;;;;5014777;28;20468;-79
2020/12/28 09:36:33;;;;;;;1.60;1.30;;;4.50;98.20;;;;;;5009951;28;20860;-79
2020/12/28 09:39:00;;;;;;;1.70;1.40;;;4.50;98.20;;;;;;5014600;28;20897;-79
2020/12/28 09:41:27;;;;;;;9.37;8.80;;;4.60;98.20;;;;;;5008699;28;20551;-77
2020/12/28 09:43:54;;;;;;;1.60;1.30;;;4.60;98.20;;;;;;5011966;28;20523;-79
2020/12/28 09:46:21;;;;;;;1.60;1.30;;;4.50;98.20;;;;;;5010036;28;20500;-78
2020/12/28 09:48:48;;;;;;;1.60;1.30;;;4.50;98.20;;;;;;5012278;28;20467;-77
2020/12/28 09:51:17;;;;;;;1.60;1.30;;;4.50;98.20;;;;;;5005792;28;20976;-77
2020/12/28 09:53:44;;;;;;;1.60;1.30;;;4.50;98.20;;;;;;5008663;28;20468;-77
2020/12/28 09:56:11;;;;;;;1.60;1.30;;;4.50;98.20;;;;;;5006738;28;20666;-77
2020/12/28 09:58:38;;;;;;;1.60;1.30;;;4.50;98.20;;;;;;5006960;28;20967;-78
2020/12/28 10:01:06;;;;;;;1.60;1.20;;;4.40;98.20;;;;;;5006695;28;20544;-77
2020/12/28 10:03:35;;;;;;;1.60;1.33;;;4.40;98.20;;;;;;5007744;28;20492;-78
2020/12/28 10:06:30;;;;;;;1.60;1.30;;;4.30;98.20;;;;;;5003197;28;20480;-77
2020/12/28 10:08:48;;;;;;;1.60;1.40;;;4.30;98.20;;;;;;5007937;28;20489;-77
2020/12/28 10:11:15;;;;;;;1.70;1.50;;;4.30;98.20;;;;;;5010148;28;20471;-78
2020/12/28 10:13:42;;;;;;;1.60;1.40;;;4.30;98.20;;;;;;5003936;28;20499;-79
2020/12/28 10:16:09;;;;;;;1.67;1.40;;;4.30;98.20;;;;;;5007783;28;20530;-78
2020/12/28 10:18:42;;;;;;;1.67;1.40;;;4.30;98.20;;;;;;5015269;28;20484;-78
2020/12/28 10:21:10;;;;;;;1.60;1.30;;;4.30;98.20;;;;;;5006863;28;20967;-78
2020/12/28 10:23:36;;;;;;;1.60;1.30;;;4.30;98.20;;;;;;5019932;28;20538;-78
2020/12/28 10:26:05;;;;;;;1.60;1.40;;;4.30;98.20;;;;;;5009857;28;20704;-78
2020/12/28 10:28:31;;;;;;;1.63;1.40;;;4.40;98.20;;;;;;5009447;28;21053;-78
2020/12/28 10:30:59;;;;;;;1.60;1.30;;;4.40;98.20;;;;;;5006780;28;20499;-78
2020/12/28 10:33:25;;;;;;;1.67;1.40;;;4.40;98.20;;;;;;5007401;28;20488;-78
2020/12/28 10:35:52;;;;;;;1.60;1.40;;;4.50;98.20;;;;;;5011553;28;21315;-79
2020/12/28 10:38:18;;;;;;;1.60;1.30;;;4.50;98.20;;;;;;5011337;28;20500;-78
2020/12/28 10:40:45;;;;;;;1.67;1.37;;;4.60;98.20;;;;;;5009511;28;20846;-78
2020/12/28 10:43:11;;;;;;;1.70;1.40;;;4.60;98.20;;;;;;5011389;28;20809;-78
2020/12/28 10:45:38;;;;;;;1.63;1.30;;;4.70;98.20;;;;;;5013794;28;20476;-78
2020/12/28 10:48:05;;;;;;;1.60;1.30;;;4.70;98.20;;;;;;5012685;28;20493;-78
2020/12/28 10:50:32;;;;;;;1.60;1.30;;;4.80;98.20;;;;;;5011901;28;20531;-78
2020/12/28 10:52:58;;;;;;;1.60;1.40;;;4.80;98.20;;;;;;5010030;28;20500;-78
2020/12/28 10:55:24;;;;;;;1.63;1.30;;;4.90;98.20;;;;;;5014156;28;20967;-78
2020/12/28 10:57:51;;;;;;;1.63;1.40;;;4.90;98.20;;;;;;5011228;28;20512;-79
2020/12/28 11:00:18;;;;;;;1.67;1.30;;;5.00;98.20;;;;;;5008939;28;20520;-77
2020/12/28 11:02:44;;;;;;;1.60;1.30;;;5.10;98.20;;;;;;5006755;28;20465;-78
2020/12/28 11:05:11;;;;;;;1.60;1.27;;;5.10;98.20;;;;;;5008828;28;20484;-78
2020/12/28 11:07:38;;;;;;;1.67;1.40;;;5.10;98.20;;;;;;5008625;28;20529;-78
2020/12/28 11:10:04;;;;;;;1.60;1.30;;;5.20;98.20;;;;;;5003451;28;20555;-77
2020/12/28 11:12:31;;;;;;;1.60;1.20;;;5.20;98.20;;;;;;4999868;28;20496;-77
2020/12/28 11:14:57;;;;;;;1.60;1.30;;;5.20;98.20;;;;;;5010836;28;20937;-78
2020/12/28 11:17:24;;;;;;;1.63;1.40;;;5.30;98.20;;;;;;5000916;28;20606;-76
2020/12/28 11:19:50;;;;;;;1.60;1.30;;;5.30;98.20;;;;;;5012893;28;20543;-77
2020/12/28 11:22:18;;;;;;;1.60;1.20;;;5.30;98.20;;;;;;5015738;28;20531;-76
2020/12/28 11:24:44;;;;;;;1.60;1.23;;;5.40;98.20;;;;;;5014088;28;20491;-76
2020/12/28 11:27:11;;;;;;;1.60;1.30;;;5.40;98.20;;;;;;5004439;28;20531;-77
2020/12/28 11:29:37;;;;;;;1.60;1.30;;;5.40;98.20;;;;;;5007242;28;20468;-77
2020/12/28 11:32:04;;;;;;;1.60;1.20;;;5.50;98.20;;;;;;5010709;28;20919;-76
2020/12/28 11:34:30;;;;;;;1.60;1.30;;;5.60;98.20;;;;;;5010183;28;20495;-77
2020/12/28 11:36:57;;;;;;;1.60;1.30;;;5.70;98.20;;;;;;5007420;28;20515;-77
2020/12/28 11:39:24;;;;;;;1.70;1.40;;;5.80;98.20;;;;;;5006088;28;20979;-77
2020/12/28 11:41:54;;;;;;;1.67;1.30;;;5.90;98.20;;;;;;4998987;28;20547;-77
2020/12/28 11:44:20;;;;;;;1.63;1.30;;;6.00;98.20;;;;;;5003140;28;20631;-76
2020/12/28 11:46:46;;;;;;;1.70;1.30;;;6.10;98.20;;;;;;5004305;28;20805;-77
2020/12/28 11:49:13;;;;;;;1.60;1.27;;;6.20;98.20;;;;;;4999074;28;20841;-77
2020/12/28 11:51:39;;;;;;;1.60;1.30;;;6.30;98.20;;;;;;5005488;28;20538;-77
2020/12/28 11:54:06;;;;;;;1.70;1.33;;;6.30;98.20;;;;;;5009421;28;20834;-77
2020/12/28 11:56:36;;;;;;;1.60;1.30;;;6.40;98.20;;;;;;5006563;28;20538;-76
2020/12/28 11:59:03;;;;;;;1.70;1.37;;;6.40;98.20;;;;;;5004700;28;21182;-77
2020/12/28 12:01:30;;;;;;;1.70;1.33;;;6.50;98.20;;;;;;5002114;28;20464;-76
2020/12/28 12:03:57;;;;;;;1.60;1.20;;;6.60;98.20;;;;;;5004776;28;20574;-76
2020/12/28 12:06:25;;;;;;;1.63;1.30;;;6.60;98.20;;;;;;5003503;28;20522;-76
2020/12/28 12:09:14;;;;;;;1.70;1.40;;;6.60;98.20;;;;;;5003802;28;20515;-77
2020/12/28 12:11:47;;;;;;;1.60;1.20;;;6.70;98.20;;;;;;5004589;28;20590;-77
2020/12/28 12:14:14;;;;;;;1.60;1.20;;;6.70;98.20;;;;;;5002319;28;21041;-77
2020/12/28 12:16:41;;;;;;;1.63;1.30;;;6.70;98.20;;;;;;5002694;28;20539;-76
2020/12/28 12:19:08;;;;;;;1.60;1.30;;;6.70;98.20;;;;;;5031079;23;20488;-76
2020/12/28 12:21:34;;;;;;;1.60;1.30;;;6.60;98.20;;;;;;5008302;28;20472;-77
2020/12/28 12:24:01;;;;;;;1.63;1.30;;;6.50;98.20;;;;;;5014374;28;20878;-78
2020/12/28 12:26:28;;;;;;;1.60;1.20;;;6.50;98.20;;;;;;5007934;28;20921;-77
2020/12/28 12:28:55;;;;;;;1.60;1.30;;;6.40;98.20;;;;;;5006001;28;21016;-79
2020/12/28 12:31:22;;;;;;;2.43;2.23;;;6.40;98.20;;;;;;5010592;28;20468;-77
2020/12/28 12:33:49;;;;;;;1.63;1.23;;;6.40;98.20;;;;;;5007241;28;20806;-76
2020/12/28 12:36:16;;;;;;;1.60;1.20;;;6.30;98.20;;;;;;5002742;28;20607;-77
2020/12/28 12:38:43;;;;;;;1.70;1.50;;;6.30;98.20;;;;;;5008978;28;20485;-78
2020/12/28 12:41:13;;;;;;;1.60;1.30;;;6.30;98.20;;;;;;5006822;28;20559;-77
2020/12/28 12:43:40;;;;;;;1.60;1.20;;;6.30;98.20;;;;;;5009920;28;20868;-78
2020/12/28 12:46:09;;;;;;;1.60;1.27;;;6.30;98.20;;;;;;5006769;28;20558;-78
2020/12/28 12:48:38;;;;;;;1.60;1.20;;;6.30;98.20;;;;;;5011390;28;20575;-78
2020/12/28 12:51:04;;;;;;;1.60;1.20;;;6.30;98.20;;;;;;5009613;28;20503;-77
2020/12/28 12:53:31;;;;;;;1.60;1.23;;;6.30;98.20;;;;;;5002886;28;20556;-77
2020/12/28 12:55:57;;;;;;;1.67;1.40;;;6.30;98.20;;;;;;5005483;28;20531;-77
2020/12/28 12:58:24;;;;;;;1.60;1.30;;;6.30;98.20;;;;;;5000876;28;21065;-77